Time;durP1;ratioP1;P1;durP2;ratioP2;P2;SDS_P1;SDS_P2;PMS_P1;PMS_P2;Temp;Humidity;BMP_temperature;BMP_pressure;BME280_temperature;BME280_humidity;BME280_pressure;Samples;Min_cycle;Max_cycle;Signal;HPM_P1;HPM_P2
2021/03/19 00:01:14;;;;;;;16.17;9.47;;;1.10;99.90;;;;;;5040164;28;20225;-73
2021/03/19 00:03:40;;;;;;;13.80;9.00;;;1.10;99.90;;;;;;5039655;28;20213;-73
2021/03/19 00:06:07;;;;;;;14.07;9.50;;;1.10;99.90;;;;;;5039264;28;20656;-72
2021/03/19 00:08:34;;;;;;;16.97;9.00;;;1.10;99.90;;;;;;5037627;28;20222;-72
2021/03/19 00:11:02;;;;;;;14.87;8.43;;;1.10;99.90;;;;;;5032661;28;20240;-72
2021/03/19 00:13:28;;;;;;;13.27;8.53;;;1.10;99.90;;;;;;5040205;28;20579;-72
2021/03/19 00:15:55;;;;;;;15.23;8.60;;;1.00;99.90;;;;;;5038912;28;20786;-72
2021/03/19 00:18:22;;;;;;;19.47;10.07;;;1.00;99.90;;;;;;5037155;28;20381;-73
2021/03/19 00:20:49;;;;;;;15.83;9.50;;;1.00;99.90;;;;;;5037500;28;20226;-73
2021/03/19 00:23:18;;;;;;;15.43;9.43;;;1.00;99.90;;;;;;5038879;28;20209;-73
2021/03/19 00:25:45;;;;;;;15.77;9.27;;;0.90;99.90;;;;;;5034319;28;20285;-73
2021/03/19 00:28:14;;;;;;;16.93;9.17;;;0.90;99.90;;;;;;5038237;28;20206;-73
2021/03/19 00:30:42;;;;;;;14.60;8.67;;;0.90;99.90;;;;;;5039728;28;20558;-72
2021/03/19 00:33:09;;;;;;;15.60;8.53;;;0.90;99.90;;;;;;5038548;28;20210;-72
2021/03/19 00:35:36;;;;;;;15.53;8.87;;;0.80;99.90;;;;;;5037986;28;20234;-73
2021/03/19 00:38:03;;;;;;;15.53;9.33;;;0.70;99.90;;;;;;5034530;28;20270;-73
2021/03/19 00:40:30;;;;;;;17.07;8.87;;;0.70;99.90;;;;;;5039450;28;20218;-73
2021/03/19 00:42:57;;;;;;;13.57;8.30;;;0.70;99.90;;;;;;5038886;28;20214;-73
2021/03/19 00:45:26;;;;;;;15.17;8.77;;;0.60;99.90;;;;;;5039807;28;20202;-72
2021/03/19 00:47:54;;;;;;;14.83;8.80;;;0.60;99.90;;;;;;5038759;28;20253;-72
2021/03/19 00:50:23;;;;;;;16.43;9.07;;;0.60;99.90;;;;;;5039104;28;20290;-72
2021/03/19 00:52:51;;;;;;;18.00;9.23;;;0.50;99.90;;;;;;5039104;28;20293;-72
2021/03/19 00:55:18;;;;;;;15.80;9.67;;;0.50;99.90;;;;;;5038384;28;20299;-73
2021/03/19 00:57:44;;;;;;;16.13;9.70;;;0.50;99.90;;;;;;5038240;28;20287;-72
2021/03/19 01:00:13;;;;;;;18.50;9.70;;;0.40;99.90;;;;;;5038408;28;20320;-72
2021/03/19 01:02:42;;;;;;;17.53;9.47;;;0.40;99.90;;;;;;5037972;28;20198;-72
2021/03/19 01:05:11;;;;;;;16.57;9.60;;;0.30;99.90;;;;;;5036869;28;20288;-72
2021/03/19 01:07:38;;;;;;;14.77;9.00;;;0.20;99.90;;;;;;5031180;28;20301;-72
2021/03/19 01:10:08;;;;;;;14.37;8.00;;;0.20;99.90;;;;;;5029912;28;20293;-72
2021/03/19 01:12:35;;;;;;;13.50;8.03;;;0.20;99.90;;;;;;5038255;28;20283;-72
2021/03/19 01:15:02;;;;;;;12.50;7.93;;;0.10;99.90;;;;;;5038635;28;20245;-73
2021/03/19 01:17:28;;;;;;;17.00;8.40;;;0.10;99.90;;;;;;5037728;28;20210;-72
2021/03/19 01:19:55;;;;;;;13.87;8.37;;;0.10;99.90;;;;;;5037819;28;20296;-72
2021/03/19 01:22:22;;;;;;;14.37;8.70;;;0.00;99.90;;;;;;5039487;28;20289;-73
2021/03/19 01:24:48;;;;;;;16.17;8.13;;;0.00;99.90;;;;;;5038369;28;20762;-72
2021/03/19 01:27:15;;;;;;;16.37;8.80;;;0.00;99.90;;;;;;5038104;28;20241;-72
2021/03/19 01:29:41;;;;;;;12.70;7.63;;;-0.10;99.90;;;;;;5038301;28;20356;-72
2021/03/19 01:32:08;;;;;;;13.57;8.80;;;-0.10;99.90;;;;;;5038826;28;20714;-71
2021/03/19 01:34:34;;;;;;;13.90;7.90;;;-0.20;99.90;;;;;;5036837;28;20348;-72
2021/03/19 01:37:02;;;;;;;12.10;8.50;;;-0.20;99.90;;;;;;5038534;28;20243;-73
2021/03/19 01:39:29;;;;;;;14.43;8.57;;;-0.10;99.90;;;;;;5038626;28;20206;-72
2021/03/19 01:41:56;;;;;;;13.63;8.60;;;-0.20;99.90;;;;;;5039062;28;20212;-72
2021/03/19 01:44:23;;;;;;;13.27;8.43;;;-0.30;99.90;;;;;;5038528;28;20206;-72
2021/03/19 01:47:27;;;;;;;17.03;9.43;;;-0.40;99.90;;;;;;5038123;28;20245;-72
2021/03/19 01:50:32;;;;;;;15.17;8.73;;;-0.40;99.90;;;;;;5035532;28;20285;-72
2021/03/19 01:53:35;;;;;;;12.93;7.97;;;-0.50;99.90;;;;;;5036277;28;20264;-73
2021/03/19 01:56:39;;;;;;;12.53;7.50;;;-0.50;99.90;;;;;;5034946;28;20213;-73
2021/03/19 01:59:43;;;;;;;14.67;8.13;;;-0.60;99.90;;;;;;5035794;28;20210;-73
2021/03/19 02:02:47;;;;;;;14.63;8.40;;;-0.60;99.90;;;;;;5037509;28;20289;-72
2021/03/19 02:05:50;;;;;;;13.17;7.70;;;-0.60;99.90;;;;;;5035271;28;20309;-71
2021/03/19 02:08:54;;;;;;;15.23;8.17;;;-0.60;99.90;;;;;;5036830;28;20543;-72
2021/03/19 02:11:58;;;;;;;15.83;8.50;;;-0.60;99.90;;;;;;5037404;28;20286;-72
2021/03/19 02:15:02;;;;;;;12.77;7.23;;;-0.60;99.90;;;;;;5036404;28;20581;-73
2021/03/19 02:18:06;;;;;;;13.77;7.40;;;-0.60;99.90;;;;;;5036587;28;20210;-73
2021/03/19 02:21:12;;;;;;;12.07;6.83;;;-0.60;99.90;;;;;;5037085;28;20694;-72
2021/03/19 02:24:16;;;;;;;11.13;7.97;;;-0.60;99.90;;;;;;5002042;28;20297;-72
2021/03/19 02:27:19;;;;;;;15.00;8.07;;;-0.60;99.90;;;;;;5037055;28;20296;-71
2021/03/19 02:30:23;;;;;;;11.77;8.10;;;-0.60;99.90;;;;;;5036448;28;20208;-71
2021/03/19 02:32:50;;;;;;;10.93;6.97;;;-0.60;99.90;;;;;;5037179;28;20246;-73
2021/03/19 02:35:19;;;;;;;15.20;8.10;;;-0.60;99.90;;;;;;5039107;28;20313;-72
2021/03/19 02:37:45;;;;;;;16.93;8.50;;;-0.60;99.90;;;;;;5037882;28;20203;-72
2021/03/19 02:40:15;;;;;;;12.83;7.83;;;-0.60;99.90;;;;;;5037896;28;20325;-72
2021/03/19 02:42:42;;;;;;;12.23;7.90;;;-0.60;99.90;;;;;;5037144;28;20285;-72
2021/03/19 02:45:11;;;;;;;12.90;8.60;;;-0.70;99.90;;;;;;5035191;28;20241;-72
2021/03/19 02:47:37;;;;;;;13.07;7.70;;;-0.80;99.90;;;;;;5037590;28;20242;-72
2021/03/19 02:50:07;;;;;;;12.93;7.87;;;-0.80;99.90;;;;;;5029980;28;20198;-73
2021/03/19 02:52:35;;;;;;;12.20;7.93;;;-0.80;99.90;;;;;;5037041;28;20266;-72
2021/03/19 02:55:03;;;;;;;14.73;8.70;;;-0.90;99.90;;;;;;5037077;28;20237;-73
2021/03/19 02:57:29;;;;;;;14.73;7.73;;;-0.90;99.90;;;;;;5037747;28;20257;-73
2021/03/19 02:59:56;;;;;;;12.50;8.17;;;-0.90;99.90;;;;;;5037241;28;20223;-73
2021/03/19 03:02:22;;;;;;;12.73;8.67;;;-0.90;99.90;;;;;;5035398;28;20229;-73
2021/03/19 03:04:50;;;;;;;16.90;9.17;;;-0.90;99.90;;;;;;5036350;28;20277;-72
2021/03/19 03:07:23;;;;;;;16.13;8.70;;;-0.90;99.90;;;;;;5036739;28;20292;-72
2021/03/19 03:09:49;;;;;;;14.20;8.80;;;-0.90;99.90;;;;;;5037196;28;20243;-72
2021/03/19 03:12:17;;;;;;;14.47;8.03;;;-0.70;99.90;;;;;;5037270;28;20237;-73
2021/03/19 03:14:43;;;;;;;13.60;8.23;;;-0.70;99.90;;;;;;5037668;28;20262;-72
2021/03/19 03:17:10;;;;;;;12.27;8.20;;;-0.60;99.90;;;;;;5036081;28;20215;-72
2021/03/19 03:19:39;;;;;;;13.50;9.10;;;-0.60;99.90;;;;;;5031620;28;20293;-72
2021/03/19 03:22:06;;;;;;;15.30;8.83;;;-0.50;99.90;;;;;;5032609;28;20241;-72
2021/03/19 03:24:34;;;;;;;13.17;8.10;;;-0.50;99.90;;;;;;5031914;28;20210;-73
2021/03/19 03:27:00;;;;;;;15.40;8.03;;;-0.50;99.90;;;;;;5036086;28;20297;-72
2021/03/19 03:29:27;;;;;;;20.30;8.47;;;-0.50;99.90;;;;;;5034011;28;20210;-73
2021/03/19 03:31:55;;;;;;;12.97;8.43;;;-0.50;99.90;;;;;;5036701;28;20216;-73
2021/03/19 03:34:22;;;;;;;13.97;8.33;;;-0.40;99.90;;;;;;5034400;28;20286;-73
2021/03/19 03:36:50;;;;;;;13.20;8.17;;;-0.40;99.90;;;;;;5028400;28;20293;-72
2021/03/19 03:39:22;;;;;;;15.27;8.80;;;-0.40;99.90;;;;;;5031447;28;20664;-72
2021/03/19 03:41:49;;;;;;;15.53;8.07;;;-0.30;99.90;;;;;;5036342;28;20203;-71
2021/03/19 03:44:17;;;;;;;14.77;8.17;;;-0.30;99.90;;;;;;5034331;28;20211;-72
2021/03/19 03:46:45;;;;;;;15.00;8.27;;;-0.20;99.90;;;;;;5033535;28;20217;-72
2021/03/19 03:49:13;;;;;;;13.00;8.27;;;-0.20;99.90;;;;;;5029844;28;20218;-72
2021/03/19 03:51:40;;;;;;;14.57;8.37;;;-0.10;99.90;;;;;;5035589;28;20293;-72
2021/03/19 03:54:06;;;;;;;12.87;8.33;;;-0.10;99.90;;;;;;5036029;28;20289;-72
2021/03/19 03:56:33;;;;;;;14.27;7.90;;;-0.10;99.90;;;;;;5033737;28;20256;-72
2021/03/19 03:59:01;;;;;;;14.57;8.20;;;0.00;99.90;;;;;;5035621;28;20207;-72
2021/03/19 04:01:28;;;;;;;14.53;8.27;;;-0.10;99.90;;;;;;5034566;28;20691;-71
2021/03/19 04:03:54;;;;;;;13.23;8.53;;;-0.10;99.90;;;;;;5032182;28;20248;-71
2021/03/19 04:06:21;;;;;;;12.70;8.20;;;0.00;99.90;;;;;;5034001;28;20620;-71
2021/03/19 04:08:48;;;;;;;18.30;8.77;;;0.00;99.90;;;;;;5034447;28;20230;-71
2021/03/19 04:11:18;;;;;;;16.70;8.87;;;0.10;99.90;;;;;;5032657;28;20257;-71
2021/03/19 04:13:45;;;;;;;15.53;8.50;;;0.10;99.90;;;;;;5035164;28;20247;-72
2021/03/19 04:16:12;;;;;;;16.40;9.30;;;0.10;99.90;;;;;;5035215;28;20688;-71
2021/03/19 04:18:39;;;;;;;18.37;9.37;;;0.10;99.90;;;;;;5035265;28;20562;-71
2021/03/19 04:21:08;;;;;;;16.67;9.10;;;0.10;99.90;;;;;;5035424;28;20229;-72
2021/03/19 04:23:36;;;;;;;14.07;8.43;;;0.10;99.90;;;;;;5036007;28;20321;-72
2021/03/19 04:26:03;;;;;;;13.00;8.07;;;0.10;99.90;;;;;;5035166;28;20222;-71
2021/03/19 04:28:33;;;;;;;14.87;8.83;;;0.20;99.90;;;;;;5035795;28;20203;-72
2021/03/19 04:31:00;;;;;;;18.37;9.43;;;0.20;99.90;;;;;;5037628;28;20289;-72
2021/03/19 04:33:30;;;;;;;17.00;8.97;;;0.20;99.90;;;;;;5039282;28;20203;-71
2021/03/19 04:36:03;;;;;;;15.80;8.47;;;0.30;99.90;;;;;;5040293;28;20245;-71
2021/03/19 04:38:30;;;;;;;18.07;9.47;;;0.30;99.90;;;;;;5039375;28;20294;-72
2021/03/19 04:40:56;;;;;;;18.27;9.40;;;0.40;99.90;;;;;;5038921;28;20230;-72
2021/03/19 04:43:23;;;;;;;15.13;9.00;;;0.40;99.90;;;;;;5031054;28;20215;-71
2021/03/19 04:45:50;;;;;;;14.37;8.33;;;0.40;99.90;;;;;;5038394;28;20218;-71
2021/03/19 04:48:16;;;;;;;14.87;8.77;;;0.50;99.90;;;;;;5030921;28;20604;-71
2021/03/19 04:50:43;;;;;;;18.10;9.13;;;0.50;99.90;;;;;;5038678;28;20630;-71
2021/03/19 04:53:10;;;;;;;15.70;8.57;;;0.50;99.90;;;;;;5038689;28;20215;-72
2021/03/19 04:55:36;;;;;;;17.63;8.97;;;0.50;99.90;;;;;;5039293;28;20261;-73
2021/03/19 04:58:03;;;;;;;16.47;8.67;;;0.60;99.90;;;;;;5037746;28;20290;-72
2021/03/19 05:00:29;;;;;;;14.80;8.57;;;0.60;99.90;;;;;;5038455;28;20245;-71
2021/03/19 05:02:56;;;;;;;14.20;8.53;;;0.70;99.90;;;;;;5037185;28;20266;-72
2021/03/19 05:05:25;;;;;;;14.03;8.67;;;0.60;99.90;;;;;;5037527;28;20325;-72
2021/03/19 05:07:54;;;;;;;12.17;8.47;;;0.70;99.90;;;;;;5037376;28;20218;-72
2021/03/19 05:10:23;;;;;;;13.67;7.60;;;0.70;99.90;;;;;;5036886;28;20230;-72
2021/03/19 05:12:49;;;;;;;15.13;8.17;;;0.70;99.90;;;;;;5037663;28;20298;-71
2021/03/19 05:15:16;;;;;;;13.23;8.63;;;0.80;99.90;;;;;;5036266;28;20313;-71
2021/03/19 05:17:42;;;;;;;13.83;8.50;;;0.80;99.90;;;;;;5036110;28;20301;-71
2021/03/19 05:20:13;;;;;;;18.20;8.83;;;0.80;99.90;;;;;;5034923;28;20260;-72
2021/03/19 05:22:40;;;;;;;12.80;7.57;;;0.80;99.90;;;;;;5030751;28;20236;-72
2021/03/19 05:25:09;;;;;;;16.67;8.20;;;0.80;99.90;;;;;;5037063;28;20242;-72
2021/03/19 05:27:37;;;;;;;15.33;7.80;;;0.80;99.90;;;;;;5036372;28;20206;-72
2021/03/19 05:30:05;;;;;;;14.10;8.37;;;0.80;99.90;;;;;;5036334;28;20292;-71
2021/03/19 05:32:31;;;;;;;14.93;8.47;;;0.80;99.90;;;;;;5034703;28;20234;-73
2021/03/19 05:34:58;;;;;;;18.33;10.40;;;0.90;99.90;;;;;;5031092;28;20239;-72
2021/03/19 05:37:24;;;;;;;17.27;10.47;;;0.90;99.90;;;;;;5036784;28;20282;-73
2021/03/19 05:39:51;;;;;;;20.57;12.07;;;0.90;99.90;;;;;;5031638;28;20239;-72
2021/03/19 05:42:24;;;;;;;23.10;11.60;;;1.00;99.90;;;;;;5034746;28;20238;-72
2021/03/19 05:44:59;;;;;;;21.40;11.90;;;1.00;99.90;;;;;;5033266;28;20242;-72
2021/03/19 05:47:26;;;;;;;19.53;11.73;;;1.10;99.90;;;;;;5036571;28;20206;-72
2021/03/19 05:49:58;;;;;;;21.77;11.70;;;1.10;99.90;;;;;;5036476;28;20260;-73
2021/03/19 05:52:28;;;;;;;23.20;11.77;;;1.20;99.90;;;;;;5036960;28;20277;-73
2021/03/19 05:54:56;;;;;;;25.03;13.50;;;1.30;99.90;;;;;;5036922;28;20206;-72
2021/03/19 05:57:27;;;;;;;26.50;14.40;;;1.30;99.90;;;;;;5036412;28;20218;-71
2021/03/19 05:59:56;;;;;;;20.67;11.53;;;1.40;99.90;;;;;;5036731;28;20675;-73
2021/03/19 06:02:27;;;;;;;18.60;10.97;;;1.40;99.90;;;;;;5037168;28;20257;-73
2021/03/19 06:05:06;;;;;;;16.93;9.77;;;1.50;99.90;;;;;;5036165;28;20329;-72
2021/03/19 06:07:48;;;;;;;15.67;9.10;;;1.60;99.90;;;;;;5037060;28;20233;-73
2021/03/19 06:10:35;;;;;;;14.83;9.37;;;1.70;99.90;;;;;;5035408;28;20616;-72
2021/03/19 06:13:23;;;;;;;13.80;8.93;;;1.70;99.90;;;;;;5031700;28;20321;-72
2021/03/19 06:15:52;;;;;;;14.13;8.63;;;1.80;99.90;;;;;;5028765;28;20207;-72
2021/03/19 06:18:26;;;;;;;11.03;8.57;;;1.80;99.90;;;;;;5035274;28;20616;-73
2021/03/19 06:20:56;;;;;;;13.83;7.97;;;1.80;99.90;;;;;;5035536;28;20581;-73
2021/03/19 06:23:25;;;;;;;15.00;9.03;;;1.80;99.90;;;;;;5035654;28;20206;-72
2021/03/19 06:26:04;;;;;;;13.97;8.47;;;1.90;99.90;;;;;;5033588;28;20693;-72
2021/03/19 06:28:34;;;;;;;12.40;8.57;;;1.90;99.90;;;;;;5035137;28;20770;-73
2021/03/19 06:31:21;;;;;;;13.47;8.20;;;2.00;99.90;;;;;;5035667;28;20281;-75
2021/03/19 06:34:01;;;;;;;12.10;8.13;;;2.10;99.90;;;;;;5036469;28;20725;-75
2021/03/19 06:36:28;;;;;;;10.30;7.30;;;2.00;99.90;;;;;;5033654;28;20210;-73
2021/03/19 06:39:07;;;;;;;12.47;7.43;;;2.10;99.90;;;;;;5037041;28;20203;-73
2021/03/19 06:41:36;;;;;;;12.70;7.20;;;2.10;99.90;;;;;;5032650;28;20439;-73
2021/03/19 06:44:16;;;;;;;11.50;7.93;;;2.30;99.90;;;;;;5036753;28;20418;-74
2021/03/19 06:46:46;;;;;;;12.60;8.33;;;2.40;99.90;;;;;;5037592;28;20233;-74
2021/03/19 06:49:14;;;;;;;12.40;7.93;;;2.50;99.90;;;;;;5038295;28;20289;-73
2021/03/19 06:51:42;;;;;;;13.73;7.70;;;2.70;99.90;;;;;;5036691;28;20233;-73
2021/03/19 06:54:15;;;;;;;11.47;7.37;;;2.80;99.90;;;;;;5036440;28;20286;-72
2021/03/19 06:57:02;;;;;;;12.80;7.17;;;2.90;99.90;;;;;;5034636;28;20235;-74
2021/03/19 06:59:41;;;;;;;14.10;7.90;;;3.00;99.90;;;;;;5030284;28;20210;-76
2021/03/19 07:02:46;;;;;;;11.17;7.90;;;3.00;99.90;;;;;;5030690;28;20239;-74
2021/03/19 07:05:31;;;;;;;15.13;7.13;;;3.10;99.90;;;;;;5034822;28;20308;-72
2021/03/19 07:08:13;;;;;;;14.50;7.47;;;3.30;99.90;;;;;;5034967;28;20333;-71
2021/03/19 07:10:52;;;;;;;11.77;7.67;;;3.40;99.90;;;;;;5035357;28;20228;-70
2021/03/19 07:13:36;;;;;;;13.07;7.67;;;3.50;99.90;;;;;;5033410;28;20225;-73
2021/03/19 07:16:10;;;;;;;10.97;7.47;;;3.60;99.90;;;;;;5034076;28;20218;-71
2021/03/19 07:18:52;;;;;;;10.70;6.93;;;3.70;99.90;;;;;;5033543;28;20281;-72
2021/03/19 07:21:52;;;;;;;11.07;7.33;;;3.70;99.90;;;;;;5033643;28;20223;-72
2021/03/19 07:24:42;;;;;;;12.10;7.03;;;3.60;99.90;;;;;;5034582;28;20217;-71
2021/03/19 07:27:28;;;;;;;11.50;7.30;;;3.40;99.90;;;;;;5033478;28;20234;-72
2021/03/19 07:30:07;;;;;;;12.00;8.33;;;3.30;99.90;;;;;;5032224;28;20261;-72
2021/03/19 07:33:01;;;;;;;16.27;8.33;;;3.40;99.90;;;;;;5033741;28;20206;-72
2021/03/19 07:35:48;;;;;;;15.27;8.27;;;3.40;99.90;;;;;;5029330;28;20237;-70
2021/03/19 07:38:52;;;;;;;14.90;8.17;;;3.40;99.90;;;;;;5030288;28;20203;-72
2021/03/19 07:42:03;;;;;;;17.83;10.57;;;3.40;99.90;;;;;;5030576;28;20211;-69
2021/03/19 07:44:49;;;;;;;15.37;9.77;;;3.40;99.90;;;;;;4983495;28;20239;-72
2021/03/19 07:47:40;;;;;;;15.70;9.97;;;3.30;99.90;;;;;;5026214;28;20233;-72
2021/03/19 07:50:25;;;;;;;16.83;10.60;;;3.30;99.90;;;;;;5032352;28;20214;-72
2021/03/19 07:53:18;;;;;;;17.20;10.23;;;3.40;99.90;;;;;;5031435;28;20213;-72
2021/03/19 07:55:56;;;;;;;14.97;9.87;;;3.60;99.90;;;;;;5030485;28;20689;-74
2021/03/19 07:58:44;;;;;;;17.70;11.63;;;3.80;99.90;;;;;;5033026;28;20214;-73
2021/03/19 08:01:19;;;;;;;18.67;11.33;;;3.90;99.90;;;;;;5028057;28;20293;-72
2021/03/19 08:03:50;;;;;;;18.47;11.10;;;4.10;99.90;;;;;;5031828;28;20247;-74
2021/03/19 08:06:22;;;;;;;18.30;12.57;;;4.00;99.90;;;;;;5035470;28;20203;-76
2021/03/19 08:08:58;;;;;;;18.43;11.97;;;4.10;99.90;;;;;;5035487;28;20227;-74
2021/03/19 08:11:31;;;;;;;19.30;12.93;;;4.20;99.90;;;;;;5035691;28;20206;-74
2021/03/19 08:14:10;;;;;;;22.07;13.23;;;4.20;99.90;;;;;;5035718;28;20249;-72
2021/03/19 08:16:43;;;;;;;21.20;14.40;;;4.20;99.90;;;;;;5032355;28;20202;-74
2021/03/19 08:19:23;;;;;;;23.60;14.27;;;4.30;99.90;;;;;;5030385;28;20206;-74
2021/03/19 08:21:57;;;;;;;20.67;14.20;;;4.60;99.90;;;;;;5032229;28;20500;-73
2021/03/19 08:24:33;;;;;;;21.20;13.17;;;5.00;99.90;;;;;;5030003;28;20289;-74
2021/03/19 08:27:07;;;;;;;22.20;13.10;;;5.30;99.90;;;;;;5036324;28;20234;-73
2021/03/19 08:29:44;;;;;;;22.20;15.03;;;5.80;99.90;;;;;;5035261;28;20266;-74
2021/03/19 08:32:19;;;;;;;21.33;12.73;;;6.30;99.90;;;;;;5033012;28;20869;-73
2021/03/19 08:34:55;;;;;;;21.47;13.80;;;6.50;99.90;;;;;;5030059;28;20296;-74
2021/03/19 08:37:31;;;;;;;19.83;13.70;;;6.90;99.90;;;;;;5033391;28;20242;-74
2021/03/19 08:39:58;;;;;;;22.57;14.27;;;6.90;99.90;;;;;;5033802;28;20202;-74
2021/03/19 08:42:33;;;;;;;19.80;13.60;;;7.00;99.10;;;;;;5028710;28;20203;-73
2021/03/19 08:45:02;;;;;;;15.43;11.00;;;7.20;98.40;;;;;;5033928;28;20222;-74
2021/03/19 08:47:35;;;;;;;20.47;10.97;;;7.40;97.40;;;;;;5032958;28;20278;-74
2021/03/19 08:50:14;;;;;;;19.93;12.13;;;7.60;96.10;;;;;;5021771;28;20293;-73
2021/03/19 08:52:42;;;;;;;27.17;11.63;;;7.70;95.60;;;;;;5027287;28;20333;-74
2021/03/19 08:55:28;;;;;;;24.37;11.37;;;7.80;94.30;;;;;;5030585;28;20255;-74
2021/03/19 08:57:57;;;;;;;15.30;10.13;;;7.80;93.20;;;;;;5029105;28;20624;-72
2021/03/19 09:00:50;;;;;;;17.00;10.17;;;7.60;91.70;;;;;;5035506;28;20246;-72
2021/03/19 09:03:55;;;;;;;14.00;9.43;;;7.40;91.20;;;;;;5028824;28;20293;-72
2021/03/19 09:06:26;;;;;;;12.27;8.57;;;7.10;91.20;;;;;;5031251;28;20737;-72
2021/03/19 09:08:59;;;;;;;17.63;9.37;;;6.80;91.20;;;;;;5033019;28;20598;-71
2021/03/19 09:12:09;;;;;;;14.03;9.70;;;6.50;91.90;;;;;;5031959;28;20226;-73
2021/03/19 09:14:39;;;;;;;13.67;9.17;;;6.20;92.90;;;;;;5030862;28;20246;-72
2021/03/19 09:17:06;;;;;;;15.03;9.40;;;6.10;94.10;;;;;;5031165;28;20243;-72
2021/03/19 09:19:59;;;;;;;13.97;8.80;;;5.90;94.30;;;;;;5034201;28;20206;-72
2021/03/19 09:23:19;;;;;;;12.30;9.17;;;5.90;95.00;;;;;;5028945;28;20206;-71
2021/03/19 09:25:49;;;;;;;10.10;7.20;;;5.90;95.60;;;;;;4984095;28;20218;-72
2021/03/19 09:28:56;;;;;;;9.77;7.17;;;7.10;99.90;;;;;;5032764;28;20581;-71
2021/03/19 09:31:43;;;;;;;12.03;7.43;;;8.50;94.30;;;;;;5033304;28;20614;-73
2021/03/19 09:34:22;;;;;;;12.43;8.00;;;10.90;89.70;;;;;;5032742;28;20244;-72
2021/03/19 09:37:12;;;;;;;14.33;9.03;;;12.20;65.30;;;;;;5032229;28;20218;-73
2021/03/19 09:40:09;;;;;;;14.37;9.77;;;11.50;57.50;;;;;;4997567;28;21735;-73
2021/03/19 09:42:52;;;;;;;13.17;8.43;;;10.50;57.50;;;;;;5029406;28;20643;-72
2021/03/19 09:45:28;;;;;;;12.47;8.20;;;9.70;61.70;;;;;;5029440;28;20246;-72
2021/03/19 09:48:33;;;;;;;12.53;8.33;;;11.40;94.30;;;;;;5027199;28;20234;-76
2021/03/19 09:51:35;;;;;;;12.30;7.73;;;16.30;61.60;;;;;;4949166;28;20217;-72
2021/03/19 09:54:36;;;;;;;12.27;9.37;;;22.50;42.60;;;;;;5026259;28;20202;-73
2021/03/19 09:57:14;;;;;;;12.40;8.30;;;24.30;35.30;;;;;;5030782;28;20557;-73
2021/03/19 09:59:44;;;;;;;10.63;8.05;;;22.50;33.40;;;;;;5032647;28;20210;-73
2021/03/19 10:02:27;;;;;;;8.40;7.50;;;20.50;34.30;;;;;;5034962;28;20357;-73
2021/03/19 10:04:54;;;;;;;12.47;7.73;;;18.40;36.00;;;;;;5023903;28;20252;-74
2021/03/19 10:07:24;;;;;;;8.77;7.27;;;16.80;37.90;;;;;;5033866;28;20640;-73
2021/03/19 10:09:53;;;;;;;11.53;7.60;;;15.60;39.40;;;;;;5035713;28;20664;-72
2021/03/19 10:12:22;;;;;;;10.00;6.97;;;14.80;44.60;;;;;;5026776;28;20290;-73
2021/03/19 10:14:52;;;;;;;12.00;7.03;;;15.20;42.00;;;;;;5031197;28;20291;-71
2021/03/19 10:17:25;;;;;;;10.17;6.83;;;16.60;46.20;;;;;;5034229;28;20286;-72
2021/03/19 10:19:55;;;;;;;9.57;7.00;;;19.10;38.50;;;;;;5035742;28;20667;-74
2021/03/19 10:22:34;;;;;;;9.30;7.30;;;21.30;36.00;;;;;;5033096;28;20234;-72
2021/03/19 10:25:24;;;;;;;9.65;7.68;;;21.50;33.00;;;;;;5033662;28;20213;-73
2021/03/19 10:27:53;;;;;;;12.63;9.47;;;19.70;32.90;;;;;;5023127;28;20214;-73
2021/03/19 10:30:23;;;;;;;11.37;9.10;;;17.90;34.70;;;;;;5034390;28;20293;-73
2021/03/19 10:32:50;;;;;;;10.70;8.03;;;16.20;36.70;;;;;;5034857;28;20266;-73
2021/03/19 10:35:20;;;;;;;13.10;8.90;;;14.50;38.60;;;;;;5033627;28;20233;-72
2021/03/19 10:37:53;;;;;;;11.40;8.50;;;14.60;49.20;;;;;;5034153;28;20297;-71
2021/03/19 10:40:35;;;;;;;10.53;8.00;;;17.70;42.70;;;;;;5034384;28;20210;-73
2021/03/19 10:43:10;;;;;;;10.30;8.15;;;21.60;37.60;;;;;;5034667;28;20808;-71
2021/03/19 10:45:41;;;;;;;10.73;7.10;;;25.50;33.10;;;;;;5034457;28;20675;-72
2021/03/19 10:48:18;;;;;;;10.20;6.53;;;28.40;29.20;;;;;;5035128;28;20315;-72
2021/03/19 10:50:57;;;;;;;8.32;6.35;;;28.90;26.80;;;;;;5029454;28;20207;-71
2021/03/19 10:53:39;;;;;;;8.18;5.88;;;26.90;26.60;;;;;;5033603;28;20297;-72
2021/03/19 10:56:08;;;;;;;6.43;5.75;;;24.60;28.10;;;;;;5034882;28;20286;-71
2021/03/19 10:58:39;;;;;;;7.47;6.78;;;23.00;28.60;;;;;;5033644;28;20217;-73
2021/03/19 11:01:31;;;;;;;9.07;6.80;;;21.20;29.10;;;;;;5034664;28;20301;-73
2021/03/19 11:03:58;;;;;;;6.55;5.88;;;19.50;30.50;;;;;;5032728;28;20241;-74
2021/03/19 11:06:49;;;;;;;9.07;6.77;;;17.80;31.60;;;;;;5034882;28;20199;-73
2021/03/19 11:09:17;;;;;;;8.00;5.87;;;16.10;33.60;;;;;;5030111;28;20241;-73
2021/03/19 11:11:46;;;;;;;10.13;6.73;;;14.80;34.80;;;;;;5034599;28;20298;-73
2021/03/19 11:14:16;;;;;;;8.07;6.13;;;13.70;36.30;;;;;;5034055;28;20226;-73
2021/03/19 11:16:45;;;;;;;7.17;6.37;;;12.70;38.00;;;;;;5034548;28;20202;-73
2021/03/19 11:19:16;;;;;;;8.40;6.50;;;12.00;39.40;;;;;;5035777;28;20648;-73
2021/03/19 11:21:45;;;;;;;8.60;7.47;;;11.30;40.80;;;;;;5032084;28;20219;-73
2021/03/19 11:24:21;;;;;;;7.97;6.23;;;10.70;41.90;;;;;;5035750;28;20206;-73
2021/03/19 11:27:10;;;;;;;9.90;7.27;;;10.20;42.50;;;;;;5035114;28;20221;-74
2021/03/19 11:29:39;;;;;;;8.83;5.97;;;9.60;44.20;;;;;;5028461;28;20199;-74
2021/03/19 11:32:29;;;;;;;9.03;6.13;;;9.20;45.00;;;;;;5030974;28;20754;-73
2021/03/19 11:34:57;;;;;;;10.20;6.37;;;8.90;46.10;;;;;;5042389;28;20278;-72
2021/03/19 11:37:36;;;;;;;8.97;6.53;;;8.60;46.70;;;;;;5034713;28;20233;-72
2021/03/19 11:40:08;;;;;;;7.53;5.87;;;8.50;47.10;;;;;;5033673;28;20683;-78
2021/03/19 11:42:41;;;;;;;8.07;5.80;;;8.30;47.40;;;;;;5030246;28;20214;-73
2021/03/19 11:45:10;;;;;;;7.97;5.47;;;8.10;47.90;;;;;;5029381;28;20305;-70
2021/03/19 11:47:39;;;;;;;9.70;6.70;;;8.00;48.20;;;;;;5030925;28;20237;-71
2021/03/19 11:50:30;;;;;;;8.43;5.97;;;7.80;48.40;;;;;;5034392;28;20234;-71
2021/03/19 11:52:58;;;;;;;8.60;6.53;;;7.50;48.80;;;;;;5034108;28;20213;-72
2021/03/19 11:55:27;;;;;;;9.27;6.40;;;7.30;49.50;;;;;;5033993;28;20221;-71
2021/03/19 11:57:55;;;;;;;7.40;5.87;;;7.10;49.90;;;;;;5034510;28;20302;-71
2021/03/19 12:00:25;;;;;;;9.53;6.53;;;6.90;50.70;;;;;;5032021;28;20223;-71
2021/03/19 12:02:55;;;;;;;7.73;6.00;;;6.70;51.30;;;;;;5034476;28;20233;-73
2021/03/19 12:05:22;;;;;;;7.13;5.00;;;6.60;51.80;;;;;;5030443;28;20321;-73
2021/03/19 12:07:48;;;;;;;7.43;5.50;;;6.50;51.90;;;;;;5034216;28;20277;-71
2021/03/19 12:10:17;;;;;;;8.13;5.50;;;6.50;52.00;;;;;;5031689;28;20578;-71
2021/03/19 12:12:43;;;;;;;6.20;5.10;;;6.50;52.20;;;;;;5033079;28;20218;-72
2021/03/19 12:15:15;;;;;;;9.50;5.20;;;6.40;52.30;;;;;;5032427;28;20260;-71
2021/03/19 12:17:42;;;;;;;11.03;5.80;;;6.50;52.60;;;;;;5033719;28;20199;-71
2021/03/19 12:20:09;;;;;;;10.53;6.83;;;6.50;52.80;;;;;;5033537;28;20687;-73
2021/03/19 12:22:36;;;;;;;9.07;6.00;;;6.60;52.90;;;;;;5033458;28;20238;-71
2021/03/19 12:25:03;;;;;;;10.80;5.50;;;6.60;52.90;;;;;;5032682;28;20274;-73
2021/03/19 12:27:29;;;;;;;6.80;5.17;;;6.60;53.00;;;;;;5034442;28;20715;-73
2021/03/19 12:29:57;;;;;;;7.17;5.97;;;6.50;52.90;;;;;;5033260;28;20647;-70
2021/03/19 12:32:24;;;;;;;8.97;5.40;;;6.50;52.60;;;;;;5033282;28;20272;-72
2021/03/19 12:34:52;;;;;;;6.97;5.37;;;6.40;52.30;;;;;;5034878;28;20214;-72
2021/03/19 12:37:18;;;;;;;8.30;5.10;;;6.20;52.40;;;;;;5033432;28;20306;-72
2021/03/19 12:39:45;;;;;;;10.77;5.83;;;6.20;53.00;;;;;;5034009;28;20214;-72
2021/03/19 12:42:11;;;;;;;8.83;5.43;;;6.10;53.10;;;;;;5034138;28;20223;-72
2021/03/19 12:44:38;;;;;;;8.50;5.93;;;6.00;53.80;;;;;;5032960;28;20203;-73
2021/03/19 12:47:04;;;;;;;8.50;6.03;;;5.90;54.20;;;;;;5035403;28;20239;-72
2021/03/19 12:49:32;;;;;;;10.17;5.90;;;5.80;54.50;;;;;;5032662;28;20230;-71
2021/03/19 12:51:58;;;;;;;9.23;5.90;;;5.70;54.80;;;;;;5033966;28;20214;-72
2021/03/19 12:54:25;;;;;;;10.13;6.30;;;5.70;55.40;;;;;;5031316;28;20233;-72
2021/03/19 12:56:51;;;;;;;7.93;5.70;;;5.70;55.80;;;;;;5036409;28;20679;-72
2021/03/19 12:59:18;;;;;;;6.73;5.20;;;5.80;55.90;;;;;;5032644;28;20655;-74
2021/03/19 13:01:44;;;;;;;6.20;4.90;;;6.00;56.00;;;;;;5036637;28;20230;-72
2021/03/19 13:04:11;;;;;;;7.93;5.50;;;6.20;55.90;;;;;;5035309;28;20230;-73
2021/03/19 13:06:39;;;;;;;8.60;5.70;;;6.40;55.40;;;;;;5034255;28;20233;-75
2021/03/19 13:09:10;;;;;;;8.97;5.40;;;6.70;55.10;;;;;;5039015;28;20662;-74
2021/03/19 13:11:37;;;;;;;7.90;5.10;;;6.80;54.50;;;;;;5034723;28;20207;-73
2021/03/19 13:14:04;;;;;;;6.70;4.90;;;7.00;53.80;;;;;;5036409;28;20320;-74
2021/03/19 13:16:30;;;;;;;10.03;5.87;;;6.90;53.60;;;;;;5034415;28;20206;-74
2021/03/19 13:18:57;;;;;;;8.40;5.33;;;6.80;53.50;;;;;;5033698;28;20278;-73